Главная страница
METAR-TAF:

METAR-TAF

Аэропорты :

Хартум, Судан

широта: 15-36N, долгота: 032-33E, высота над уровнем моря: 382 м

Текущие метеонаблюдения

Эта сводка был подготовлена 41 минут назад, в 07:00 UTC
Ветер 12 Узел от северный
Температура 20°C
Влажность 23%
Давление 1015 hPa
Видимость 10 км и более
Нет облачности ниже 1500 м, и нет кучево-дождевой облачности

METAR: HSSS 240700Z 36012KT CAVOK 20/M02 Q1015 NOSIG

Время: 10:41 (07:41 UTC)

Прогноз

Прогноз действительный с 24-го 06 UTC до 25-го 12 UTC
Ветер 11 Узел от северный с порывами до 21 Узел
Видимость 10 км и более
Нет облачности ниже 1500 м, и нет кучево-дождевой облачности

TAF: HSSS 2406/2512 36011G21KT CAVOK

Метеонаблюдения и прогнозы для более 4000 аэропортов (сводки METAR и TAF).

Имеющиеся станции представлены на карте желтыми и красными точками.

Чтобы увидеть название станции, наведите на нее мышь.

Затем щелкните, чтобы увидеть метеонаблюдения и метеопрогнозы.

Управление картой: чтобы увеличить масштаб, щелкните зеленые кнопки с черным крестиком; чтобы уменьшить масштаб, щелкните зеленую кнопку с тире; для просмотра соседних карт щелкайте зеленые стрелки.


METAR-TAF: